createdAt,value
2023-03-24T00:00:34.220Z,74.13
2023-03-24T00:01:34.240Z,74.04
2023-03-24T00:02:34.206Z,74.61
2023-03-24T00:03:34.489Z,74.80
2023-03-24T00:04:34.045Z,74.61
2023-03-24T00:05:34.007Z,73.94
2023-03-24T00:06:34.124Z,74.04
2023-03-24T00:07:35.305Z,73.94
2023-03-24T00:08:35.063Z,73.55
2023-03-24T00:09:33.868Z,74.13
2023-03-24T00:10:33.769Z,73.94
2023-03-24T00:11:33.846Z,73.17
2023-03-24T00:12:33.677Z,72.98
2023-03-24T00:13:33.709Z,72.69
2023-03-24T00:14:33.591Z,71.99
2023-03-24T00:15:33.807Z,71.93
2023-03-24T00:16:33.501Z,72.12
2023-03-24T00:17:34.617Z,72.50
2023-03-24T00:18:33.409Z,71.93
2023-03-24T00:19:33.545Z,71.93
2023-03-24T00:20:33.329Z,72.02
2023-03-24T00:21:33.361Z,71.93
2023-03-24T00:22:33.237Z,71.55
2023-03-24T00:23:33.190Z,71.93
2023-03-24T00:24:34.349Z,71.07
2023-03-24T00:25:33.268Z,71.93
2023-03-24T00:26:33.056Z,71.45
2023-03-24T00:27:33.094Z,71.73
2023-03-24T00:28:32.978Z,71.36
2023-03-24T00:29:32.929Z,71.64
2023-03-24T00:30:32.919Z,71.36
2023-03-24T00:31:33.142Z,71.45
2023-03-24T00:32:32.879Z,71.73
2023-03-24T00:33:33.134Z,72.02
2023-03-24T00:34:32.718Z,73.17
2023-03-24T00:35:32.724Z,73.46
2023-03-24T00:36:32.631Z,73.75
2023-03-24T00:37:32.766Z,74.13
2023-03-24T00:38:32.550Z,74.51
2023-03-24T00:39:33.783Z,74.90
2023-03-24T00:40:32.460Z,74.99
2023-03-24T00:41:32.416Z,75.37
2023-03-24T00:42:32.373Z,75.66
2023-03-24T00:43:32.396Z,75.14
2023-03-24T00:44:32.316Z,75.34
2023-03-24T00:45:33.410Z,74.99
2023-03-24T00:46:32.253Z,75.71
2023-03-24T00:47:33.288Z,75.71
2023-03-24T00:48:32.116Z,75.62
2023-03-24T00:49:32.419Z,75.62
2023-03-24T00:50:32.014Z,75.81
2023-03-24T00:51:32.047Z,75.71
2023-03-24T00:52:31.926Z,75.71
2023-03-24T00:53:31.889Z,75.47
2023-03-24T00:54:31.842Z,75.37
2023-03-24T00:55:33.104Z,74.85
2023-03-24T00:56:31.831Z,74.85
2023-03-24T00:57:32.908Z,75.24
2023-03-24T00:58:31.747Z,75.14
2023-03-24T00:59:31.616Z,75.43
2023-03-24T01:00:31.577Z,75.62
2023-03-24T01:01:31.707Z,75.43
2023-03-24T01:02:31.570Z,74.90
2023-03-24T01:03:31.520Z,73.65
2023-03-24T01:04:31.392Z,73.61
2023-03-24T01:05:31.541Z,73.23
2023-03-24T01:06:31.309Z,72.85
2023-03-24T01:07:31.450Z,71.93
2023-03-24T01:08:31.308Z,72.50
2023-03-24T01:09:31.262Z,72.31
2023-03-24T01:10:31.144Z,71.64
2023-03-24T01:11:31.281Z,70.78
2023-03-24T01:12:31.063Z,70.87
2023-03-24T01:13:31.190Z,70.40
2023-03-24T01:14:38.937Z,70.34
2023-03-24T01:15:39.969Z,69.86
2023-03-24T01:16:39.062Z,69.57
2023-03-24T01:17:37.895Z,68.80
2023-03-24T01:18:38.595Z,69.00
2023-03-24T01:19:30.832Z,68.62
2023-03-24T01:20:30.679Z,68.23
2023-03-24T01:21:39.639Z,67.94
2023-03-24T01:22:30.843Z,68.33
2023-03-24T01:23:30.545Z,68.13
2023-03-24T01:24:30.671Z,67.76
2023-03-24T01:25:38.173Z,67.31
2023-03-24T01:26:31.498Z,67.02
2023-03-24T01:27:38.982Z,66.54
2023-03-24T01:28:30.366Z,66.16
2023-03-24T01:29:31.500Z,66.64
2023-03-24T01:30:30.233Z,66.74
2023-03-24T01:31:30.323Z,66.25
2023-03-24T01:32:30.189Z,65.68
2023-03-24T01:33:30.296Z,65.88
2023-03-24T01:34:30.165Z,66.06
2023-03-24T01:35:30.113Z,65.97
2023-03-24T01:36:30.015Z,65.97
2023-03-24T01:37:30.131Z,66.25
2023-03-24T01:38:29.900Z,65.39
2023-03-24T01:39:30.964Z,65.88
2023-03-24T01:40:29.795Z,66.06
2023-03-24T01:41:29.989Z,65.88
2023-03-24T01:42:29.800Z,65.30
2023-03-24T01:43:29.759Z,65.33
2023-03-24T01:44:29.629Z,65.91
2023-03-24T01:45:29.774Z,64.95
2023-03-24T01:46:29.535Z,64.56
2023-03-24T01:47:29.596Z,64.28
2023-03-24T01:48:29.489Z,64.28
2023-03-24T01:49:29.603Z,64.28
2023-03-24T01:50:29.363Z,63.89
2023-03-24T01:51:30.757Z,63.99
2023-03-24T01:52:29.275Z,63.89
2023-03-24T01:53:29.321Z,64.18
2023-03-24T01:54:29.211Z,64.66
2023-03-24T01:55:29.337Z,64.66
2023-03-24T01:56:29.214Z,64.95
2023-03-24T01:57:29.118Z,64.95
2023-03-24T01:58:29.011Z,64.66
2023-03-24T01:59:28.963Z,64.66
2023-03-24T02:00:28.934Z,64.66
2023-03-24T02:01:29.183Z,65.33
2023-03-24T02:02:28.890Z,65.52
2023-03-24T02:03:28.985Z,65.71
2023-03-24T02:04:28.787Z,65.23
2023-03-24T02:05:28.701Z,65.91
2023-03-24T02:06:28.661Z,65.23
2023-03-24T02:07:28.786Z,65.71
2023-03-24T02:08:28.572Z,65.97
2023-03-24T02:09:28.621Z,65.78
2023-03-24T02:10:28.511Z,65.88
2023-03-24T02:11:28.445Z,66.54
2023-03-24T02:12:29.467Z,66.74
2023-03-24T02:13:29.526Z,66.74
2023-03-24T02:14:28.462Z,67.21
2023-03-24T02:15:28.289Z,67.21
2023-03-24T02:16:28.324Z,68.07
2023-03-24T02:17:28.199Z,67.41
2023-03-24T02:18:29.309Z,66.83
2023-03-24T02:19:28.114Z,66.64
2023-03-24T02:20:28.296Z,66.93
2023-03-24T02:21:28.019Z,66.93
2023-03-24T02:22:27.967Z,66.16
2023-03-24T02:23:27.976Z,66.16
2023-03-24T02:24:27.878Z,66.83
2023-03-24T02:25:29.220Z,66.64
2023-03-24T02:26:27.790Z,66.93
2023-03-24T02:27:27.851Z,67.21
2023-03-24T02:28:27.790Z,67.88
2023-03-24T02:29:27.877Z,68.27
2023-03-24T02:30:27.618Z,67.50
2023-03-24T02:31:27.705Z,67.98
2023-03-24T02:32:27.924Z,67.98
2023-03-24T02:33:27.691Z,68.17
2023-03-24T02:34:27.434Z,68.65
2023-03-24T02:35:27.491Z,68.36
2023-03-24T02:36:27.352Z,69.03
2023-03-24T02:37:27.588Z,68.33
2023-03-24T02:38:27.289Z,68.90
2023-03-24T02:39:27.226Z,68.80
2023-03-24T02:40:27.183Z,69.09
2023-03-24T02:41:27.394Z,69.09
2023-03-24T02:42:27.086Z,69.29
2023-03-24T02:43:27.244Z,69.09
2023-03-24T02:44:27.300Z,69.29
2023-03-24T02:45:26.955Z,69.38
2023-03-24T02:46:27.024Z,69.48
2023-03-24T02:47:26.904Z,69.67
2023-03-24T02:48:28.878Z,70.24
2023-03-24T02:49:26.777Z,70.37
2023-03-24T02:50:26.984Z,69.48
2023-03-24T02:51:26.689Z,69.57
2023-03-24T02:52:26.892Z,69.67
2023-03-24T02:53:26.848Z,69.19
2023-03-24T02:54:27.570Z,69.86
2023-03-24T02:55:26.516Z,69.95
2023-03-24T02:56:26.466Z,69.57
2023-03-24T02:57:26.470Z,69.67
2023-03-24T02:58:26.524Z,69.57
2023-03-24T02:59:26.348Z,69.38
2023-03-24T03:00:26.694Z,69.29
2023-03-24T03:01:26.295Z,69.86
2023-03-24T03:02:26.232Z,69.48
2023-03-24T03:03:28.406Z,70.05
2023-03-24T03:04:28.206Z,70.05
2023-03-24T03:05:26.273Z,70.34
2023-03-24T03:06:26.091Z,70.72
2023-03-24T03:07:26.084Z,70.62
2023-03-24T03:08:25.945Z,70.72
2023-03-24T03:09:25.953Z,71.01
2023-03-24T03:10:25.872Z,70.81
2023-03-24T03:11:25.953Z,71.39
2023-03-24T03:12:25.805Z,72.12
2023-03-24T03:13:25.765Z,72.12
2023-03-24T03:14:25.683Z,72.98
2023-03-24T03:15:25.785Z,73.36
2023-03-24T03:16:25.705Z,73.94
2023-03-24T03:17:26.737Z,73.75
2023-03-24T03:18:25.506Z,74.90
2023-03-24T03:19:25.474Z,75.37
2023-03-24T03:20:25.429Z,75.27
2023-03-24T03:21:25.414Z,75.81
2023-03-24T03:22:25.470Z,75.71
2023-03-24T03:23:26.505Z,76.39
2023-03-24T03:24:25.245Z,76.00
2023-03-24T03:25:25.215Z,75.62
2023-03-24T03:26:25.304Z,74.76
2023-03-24T03:27:25.123Z,73.80
2023-03-24T03:28:25.260Z,73.33
2023-03-24T03:29:25.044Z,72.47
2023-03-24T03:30:25.131Z,71.73
2023-03-24T03:31:24.966Z,72.12
2023-03-24T03:32:25.086Z,72.22
2023-03-24T03:33:24.865Z,71.26
2023-03-24T03:34:25.102Z,71.73
2023-03-24T03:35:24.761Z,70.87
2023-03-24T03:36:24.759Z,70.68
2023-03-24T03:37:24.681Z,70.68
2023-03-24T03:38:24.778Z,71.07
2023-03-24T03:39:24.587Z,70.97
2023-03-24T03:40:24.728Z,71.83
2023-03-24T03:41:24.505Z,71.64
2023-03-24T03:42:24.763Z,71.64
2023-03-24T03:43:25.921Z,71.64
2023-03-24T03:44:24.374Z,71.97
2023-03-24T03:45:24.360Z,70.91
2023-03-24T03:46:32.326Z,70.91
2023-03-24T03:47:33.823Z,70.81
2023-03-24T03:48:32.372Z,70.81
2023-03-24T03:49:31.911Z,71.01
2023-03-24T03:50:32.489Z,71.01
2023-03-24T03:51:25.118Z,70.62
2023-03-24T03:52:24.023Z,70.91
2023-03-24T03:53:31.248Z,70.43
2023-03-24T03:55:55.873Z,70.81
2023-03-24T03:57:06.266Z,70.72
2023-03-24T03:58:04.217Z,70.28
2023-03-24T03:59:03.268Z,69.89
2023-03-24T03:59:56.509Z,69.89
2023-03-24T04:01:03.290Z,69.80
2023-03-24T04:02:03.408Z,69.80
2023-03-24T04:03:03.438Z,69.60
2023-03-24T04:03:55.430Z,69.86
2023-03-24T04:05:05.274Z,70.34
2023-03-24T04:05:55.090Z,70.37
2023-03-24T04:06:55.192Z,70.18
2023-03-24T04:07:55.011Z,69.80
2023-03-24T04:08:55.215Z,69.89
2023-03-24T04:09:55.057Z,70.91
2023-03-24T04:10:54.861Z,70.91
2023-03-24T04:11:56.061Z,70.81
2023-03-24T04:12:54.774Z,71.11
2023-03-24T04:13:54.831Z,70.85
2023-03-24T04:14:54.685Z,71.11
2023-03-24T04:15:54.910Z,71.42
2023-03-24T04:16:54.863Z,71.48
2023-03-24T04:17:54.567Z,71.87
2023-03-24T04:18:54.595Z,71.87
2023-03-24T04:19:54.727Z,72.29
2023-03-24T04:20:54.618Z,71.97
2023-03-24T04:21:54.378Z,72.09
2023-03-24T04:22:54.591Z,71.77
2023-03-24T04:23:54.312Z,72.34
2023-03-24T04:24:54.405Z,72.73
2023-03-24T04:25:54.253Z,72.92
2023-03-24T04:26:54.448Z,72.73
2023-03-24T04:27:54.152Z,73.59
2023-03-24T04:28:54.105Z,73.50
2023-03-24T04:29:54.192Z,73.40
2023-03-24T04:30:53.981Z,73.97
2023-03-24T04:31:54.040Z,73.88
2023-03-24T04:32:53.969Z,74.84
2023-03-24T04:33:53.848Z,74.84
2023-03-24T04:34:54.113Z,75.02
2023-03-24T04:35:53.816Z,76.75
2023-03-24T04:36:53.712Z,75.79
2023-03-24T04:37:53.879Z,76.18
2023-03-24T04:38:53.623Z,77.23
2023-03-24T04:39:53.585Z,78.81
2023-03-24T04:40:53.904Z,79.00
2023-03-24T04:41:53.495Z,78.57
2023-03-24T04:42:54.531Z,78.91
2023-03-24T04:43:53.433Z,79.29
2023-03-24T04:44:53.358Z,79.49
2023-03-24T04:45:53.327Z,80.35
2023-03-24T04:46:53.565Z,80.44
2023-03-24T04:47:53.259Z,81.97
2023-03-24T04:48:53.453Z,81.78
2023-03-24T04:49:53.143Z,81.88
2023-03-24T04:50:53.097Z,82.31
2023-03-24T04:51:54.217Z,83.03
2023-03-24T04:52:53.034Z,82.98
2023-03-24T04:53:53.080Z,83.84
2023-03-24T04:54:52.915Z,84.32
2023-03-24T04:55:53.099Z,83.75
2023-03-24T04:56:52.883Z,84.80
2023-03-24T04:57:52.906Z,84.89
2023-03-24T04:58:52.967Z,85.09
2023-03-24T04:59:52.928Z,85.99
2023-03-24T05:00:52.681Z,87.19
2023-03-24T05:01:52.740Z,87.66
2023-03-24T05:02:52.613Z,87.09
2023-03-24T05:03:52.680Z,87.81
2023-03-24T05:04:52.515Z,88.05
2023-03-24T05:05:52.577Z,88.05
2023-03-24T05:06:52.387Z,88.91
2023-03-24T05:07:52.342Z,89.96
2023-03-24T05:08:52.327Z,90.44
2023-03-24T05:09:52.393Z,90.92
2023-03-24T05:10:53.356Z,90.73
2023-03-24T05:11:53.240Z,89.87
2023-03-24T05:12:52.112Z,90.25
2023-03-24T05:13:52.068Z,90.53
2023-03-24T05:14:52.026Z,90.73
2023-03-24T05:15:52.228Z,89.48
2023-03-24T05:16:51.967Z,89.87
2023-03-24T05:17:52.058Z,89.39
2023-03-24T05:18:52.078Z,90.16
2023-03-24T05:19:51.794Z,90.63
2023-03-24T05:20:52.041Z,90.73
2023-03-24T05:21:51.723Z,90.63
2023-03-24T05:22:52.893Z,90.53
2023-03-24T05:23:51.617Z,90.73
2023-03-24T05:24:51.604Z,90.06
2023-03-24T05:25:51.537Z,90.53
2023-03-24T05:26:51.779Z,90.53
2023-03-24T05:27:51.448Z,90.53
2023-03-24T05:28:52.624Z,90.92
2023-03-24T05:29:51.353Z,91.39
2023-03-24T05:30:52.576Z,91.59
2023-03-24T05:31:51.278Z,91.68
2023-03-24T05:32:52.537Z,90.16
2023-03-24T05:33:51.172Z,90.53
2023-03-24T05:34:52.308Z,90.92
2023-03-24T05:35:51.142Z,90.06
2023-03-24T05:36:51.079Z,90.53
2023-03-24T05:37:53.090Z,90.82
2023-03-24T05:38:50.951Z,91.49
2023-03-24T05:39:51.055Z,91.49
2023-03-24T05:40:50.866Z,91.39
2023-03-24T05:41:50.818Z,91.49
2023-03-24T05:42:51.139Z,91.11
2023-03-24T05:43:50.879Z,91.49
2023-03-24T05:44:50.746Z,92.45
2023-03-24T05:45:50.949Z,91.59
2023-03-24T05:46:50.761Z,91.49
2023-03-24T05:47:50.598Z,91.30
2023-03-24T05:48:50.711Z,91.78
2023-03-24T05:49:50.689Z,91.78
2023-03-24T05:50:51.546Z,91.30
2023-03-24T05:51:50.383Z,91.68
2023-03-24T05:52:50.537Z,91.49
2023-03-24T05:53:50.291Z,91.97
2023-03-24T05:54:51.377Z,91.59
2023-03-24T05:55:50.407Z,91.88
2023-03-24T05:56:50.381Z,91.20
2023-03-24T05:57:50.107Z,91.97
2023-03-24T05:58:50.070Z,92.25
2023-03-24T05:59:50.027Z,91.97
2023-03-24T06:03:48.640Z,92.07
2023-03-24T06:04:48.012Z,92.25
2023-03-24T06:05:49.230Z,93.21
2023-03-24T06:06:47.896Z,93.60
2023-03-24T06:07:47.985Z,93.60
2023-03-24T06:08:47.809Z,94.17
2023-03-24T06:09:49.038Z,93.98
2023-03-24T06:10:47.718Z,94.26
2023-03-24T06:11:48.854Z,94.46
2023-03-24T06:12:47.883Z,94.55
2023-03-24T06:13:47.837Z,94.36
2023-03-24T06:14:47.536Z,94.07
2023-03-24T06:15:47.705Z,94.26
2023-03-24T06:16:47.439Z,95.32
2023-03-24T06:17:58.092Z,94.26
2023-03-24T06:18:47.680Z,94.74
2023-03-24T06:19:56.572Z,95.70
2023-03-24T06:20:47.276Z,96.08
2023-03-24T06:21:47.215Z,96.08
2023-03-24T06:23:09.215Z,96.37
2023-03-24T06:23:55.100Z,96.84
2023-03-24T06:24:47.198Z,96.94
2023-03-24T06:25:47.153Z,97.71
2023-03-24T06:26:55.655Z,97.52
2023-03-24T06:27:48.245Z,97.52
2023-03-24T06:28:55.192Z,98.38
2023-03-24T06:29:54.726Z,98.57
2023-03-24T06:30:47.013Z,98.95
2023-03-24T06:31:46.761Z,98.95
2023-03-24T06:32:47.046Z,97.71
2023-03-24T06:33:46.667Z,97.71
2023-03-24T06:34:46.654Z,97.52
2023-03-24T06:35:46.933Z,98.28
2023-03-24T06:36:46.693Z,97.13
2023-03-24T06:37:46.489Z,97.90
2023-03-24T06:38:46.455Z,96.84
2023-03-24T06:39:46.436Z,97.61
2023-03-24T06:40:47.530Z,98.75
2023-03-24T06:41:46.348Z,98.95
2023-03-24T06:42:46.405Z,97.99
2023-03-24T06:43:46.230Z,98.57
2023-03-24T06:44:46.176Z,98.66
2023-03-24T06:45:46.718Z,98.28
2023-03-24T06:46:46.217Z,98.66
2023-03-24T06:47:47.393Z,98.85
2023-03-24T06:48:46.000Z,97.90
2023-03-24T06:49:45.962Z,97.52
2023-03-24T06:50:46.049Z,98.38
2023-03-24T06:51:46.068Z,97.61
2023-03-24T06:52:45.830Z,97.13
2023-03-24T06:53:46.163Z,96.94
2023-03-24T06:54:45.732Z,95.84
2023-03-24T06:55:45.891Z,95.94
2023-03-24T06:56:45.651Z,95.84
2023-03-24T06:57:45.807Z,95.07
2023-03-24T06:58:45.586Z,95.27
2023-03-24T06:59:45.814Z,94.98
2023-03-24T07:00:45.635Z,94.12
2023-03-24T07:01:45.494Z,93.74
2023-03-24T07:02:45.607Z,93.93
2023-03-24T07:03:45.435Z,94.41
2023-03-24T07:04:45.542Z,93.74
2023-03-24T07:05:45.252Z,93.35
2023-03-24T07:06:58.243Z,93.74
2023-03-24T07:08:45.463Z,93.07
2023-03-24T07:09:45.078Z,93.45
2023-03-24T07:10:45.230Z,94.12
2023-03-24T07:11:44.982Z,93.84
2023-03-24T07:12:44.936Z,93.26
2023-03-24T07:13:44.899Z,94.70
2023-03-24T07:14:45.113Z,95.56
2023-03-24T07:15:44.836Z,95.94
2023-03-24T07:16:45.004Z,97.13
2023-03-24T07:17:44.734Z,98.57
2023-03-24T07:18:44.673Z,98.75
2023-03-24T07:19:44.851Z,99.62
2023-03-24T07:20:45.184Z,99.52
2023-03-24T07:21:44.845Z,99.43
2023-03-24T07:22:44.493Z,99.71
2023-03-24T07:23:44.550Z,99.99
2023-03-24T07:24:44.404Z,99.99
2023-03-24T07:25:44.467Z,99.99
2023-03-24T07:26:44.347Z,99.99
2023-03-24T07:27:44.477Z,99.99
2023-03-24T07:28:44.231Z,99.99
2023-03-24T07:29:44.183Z,99.99
2023-03-24T07:30:44.401Z,99.99
2023-03-24T07:31:44.458Z,99.99
2023-03-24T07:32:44.105Z,99.99
2023-03-24T07:33:44.235Z,99.99
2023-03-24T07:34:44.031Z,99.99
2023-03-24T07:35:44.187Z,99.99
2023-03-24T07:36:44.355Z,99.99
2023-03-24T07:37:43.833Z,99.99
2023-03-24T07:38:43.864Z,99.99
2023-03-24T07:39:43.752Z,99.99
2023-03-24T07:40:44.230Z,99.99
2023-03-24T07:41:43.674Z,99.99
2023-03-24T07:42:43.878Z,99.99
2023-03-24T07:43:43.576Z,99.99
2023-03-24T07:44:43.699Z,99.99
2023-03-24T07:45:43.661Z,99.99
2023-03-24T07:46:43.602Z,99.99
2023-03-24T07:47:43.423Z,99.99
2023-03-24T07:48:43.438Z,99.99
2023-03-24T07:49:43.297Z,99.99
2023-03-24T07:50:43.686Z,99.99
2023-03-24T07:51:44.584Z,99.99
2023-03-24T07:52:43.215Z,99.99
2023-03-24T07:53:43.130Z,99.99
2023-03-24T07:54:43.247Z,99.99
2023-03-24T07:55:43.047Z,99.99
2023-03-24T07:56:44.119Z,99.99
2023-03-24T07:57:42.943Z,99.99
2023-03-24T07:58:43.037Z,99.99
2023-03-24T07:59:42.872Z,99.99
2023-03-24T08:00:44.015Z,99.99
2023-03-24T08:01:42.808Z,99.99
2023-03-24T08:02:42.898Z,99.99
2023-03-24T08:03:42.813Z,99.99
2023-03-24T08:04:42.895Z,99.99
2023-03-24T08:05:42.613Z,99.99
2023-03-24T08:06:42.553Z,99.99
2023-03-24T08:07:42.773Z,99.99
2023-03-24T08:08:42.465Z,99.99
2023-03-24T08:09:42.645Z,99.99
2023-03-24T08:10:42.497Z,99.99
2023-03-24T08:11:42.472Z,99.99
2023-03-24T08:12:42.292Z,99.99
2023-03-24T08:13:42.263Z,99.99
2023-03-24T08:14:42.198Z,99.99
2023-03-24T08:15:42.260Z,99.99
2023-03-24T08:16:42.166Z,99.99
2023-03-24T08:17:42.107Z,99.99
2023-03-24T08:18:42.021Z,99.99
2023-03-24T08:19:56.127Z,99.99
2023-03-24T08:20:41.948Z,99.96
2023-03-24T08:21:42.167Z,99.96
2023-03-24T08:22:41.906Z,99.00
2023-03-24T08:23:41.803Z,98.52
2023-03-24T08:24:41.931Z,99.29
2023-03-24T08:25:41.713Z,98.90
2023-03-24T08:26:42.756Z,98.81
2023-03-24T08:27:41.733Z,99.38
2023-03-24T08:28:41.572Z,98.04
2023-03-24T08:29:41.753Z,98.00
2023-03-24T08:30:41.534Z,96.94
2023-03-24T08:31:41.575Z,97.33
2023-03-24T08:32:41.646Z,97.33
2023-03-24T08:33:41.606Z,96.08
2023-03-24T08:34:41.310Z,97.13
2023-03-24T08:35:41.620Z,96.94
2023-03-24T08:36:41.223Z,95.31
2023-03-24T08:37:41.410Z,95.70
2023-03-24T08:38:41.213Z,94.12
2023-03-24T08:39:41.106Z,93.45
2023-03-24T08:40:42.168Z,93.54
2023-03-24T08:41:41.174Z,93.83
2023-03-24T08:42:41.122Z,93.64
2023-03-24T08:43:40.926Z,93.64
2023-03-24T08:44:40.876Z,92.40
2023-03-24T08:45:40.867Z,92.73
2023-03-24T08:46:40.907Z,91.92
2023-03-24T08:47:40.772Z,92.63
2023-03-24T08:48:40.885Z,91.00
2023-03-24T08:49:48.799Z,89.86
2023-03-24T08:50:42.847Z,90.05
2023-03-24T08:51:40.595Z,89.37
2023-03-24T08:52:40.697Z,89.18
2023-03-24T08:53:40.488Z,89.51
2023-03-24T08:54:40.506Z,87.98
2023-03-24T08:55:40.431Z,85.49
2023-03-24T08:58:21.883Z,85.25
2023-03-24T08:59:16.597Z,84.30
2023-03-24T09:00:16.612Z,84.88
2023-03-24T09:01:16.536Z,86.21
2023-03-24T09:02:16.509Z,84.88
2023-03-24T09:03:16.410Z,85.16
2023-03-24T09:04:16.544Z,84.97
2023-03-24T09:05:16.328Z,84.78
2023-03-24T09:06:16.506Z,85.45
2023-03-24T09:07:16.338Z,85.83
2023-03-24T09:08:16.199Z,85.88
2023-03-24T09:09:16.350Z,87.41
2023-03-24T09:10:16.115Z,87.23
2023-03-24T09:11:16.175Z,88.18
2023-03-24T09:12:16.020Z,88.37
2023-03-24T09:13:15.987Z,89.52
2023-03-24T09:14:15.937Z,90.72
2023-03-24T09:15:15.994Z,90.39
2023-03-24T09:16:15.893Z,89.14
2023-03-24T09:17:17.120Z,89.90
2023-03-24T09:18:15.761Z,90.53
2023-03-24T09:19:15.719Z,90.91
2023-03-24T09:20:15.850Z,91.68
2023-03-24T09:21:15.657Z,91.68
2023-03-24T09:22:15.831Z,91.20
2023-03-24T09:23:15.546Z,92.06
2023-03-24T09:24:15.613Z,91.39
2023-03-24T09:25:15.463Z,90.24
2023-03-24T09:26:15.549Z,89.86
2023-03-24T09:27:15.372Z,89.67
2023-03-24T09:28:15.573Z,90.34
2023-03-24T09:29:15.279Z,90.09
2023-03-24T09:30:15.269Z,90.48
2023-03-24T09:31:15.475Z,90.96
2023-03-24T09:32:17.230Z,92.40
2023-03-24T09:33:15.220Z,92.40
2023-03-24T09:34:16.228Z,89.86
2023-03-24T09:35:15.041Z,90.44
2023-03-24T09:36:15.020Z,92.11
2023-03-24T09:37:15.029Z,91.92
2023-03-24T09:38:14.902Z,92.49
2023-03-24T09:39:14.931Z,93.93
2023-03-24T09:40:14.810Z,93.45
2023-03-24T09:41:14.963Z,91.49
2023-03-24T09:42:14.727Z,92.21
2023-03-24T09:43:15.982Z,91.25
2023-03-24T09:44:14.628Z,89.86
2023-03-24T09:45:14.750Z,89.90
2023-03-24T09:46:14.571Z,90.77
2023-03-24T09:47:14.502Z,90.24
2023-03-24T09:48:14.633Z,88.90
2023-03-24T09:49:14.563Z,90.15
2023-03-24T09:50:14.375Z,90.72
2023-03-24T09:51:14.373Z,90.24
2023-03-24T09:52:14.274Z,91.97
2023-03-24T09:53:14.232Z,92.44
2023-03-24T09:54:15.443Z,93.45
2023-03-24T09:55:14.145Z,92.49
2023-03-24T09:56:16.286Z,92.16
2023-03-24T09:57:14.103Z,92.30
2023-03-24T09:58:14.254Z,93.93
2023-03-24T09:59:13.976Z,94.40
2023-03-24T10:00:14.273Z,92.40
2023-03-24T10:01:13.932Z,91.05
2023-03-24T10:02:14.092Z,90.48
2023-03-24T10:03:13.953Z,91.44
2023-03-24T10:04:13.838Z,90.91
2023-03-24T10:05:13.759Z,89.37
2023-03-24T10:06:13.968Z,86.41
2023-03-24T10:07:13.630Z,84.68
2023-03-24T10:08:13.820Z,86.12
2023-03-24T10:09:13.539Z,87.17
2023-03-24T10:10:13.497Z,85.74
2023-03-24T10:11:13.487Z,83.92
2023-03-24T10:12:13.499Z,82.67
2023-03-24T10:13:13.426Z,82.96
2023-03-24T10:14:13.521Z,84.11
2023-03-24T10:15:13.629Z,83.53
2023-03-24T10:16:13.302Z,83.34
2023-03-24T10:17:14.353Z,84.30
2023-03-24T10:18:13.328Z,82.67
2023-03-24T10:19:13.146Z,83.00
2023-03-24T10:20:13.296Z,83.34
2023-03-24T10:21:13.038Z,83.44
2023-03-24T10:22:13.102Z,83.00
2023-03-24T10:23:12.966Z,83.19
2023-03-24T10:24:13.120Z,82.04
2023-03-24T10:25:12.866Z,82.08
2023-03-24T10:26:12.932Z,81.12
2023-03-24T10:27:13.138Z,79.01
2023-03-24T10:28:12.731Z,79.01
2023-03-24T10:29:12.950Z,78.44
2023-03-24T10:30:12.656Z,77.51
2023-03-24T10:31:12.759Z,77.61
2023-03-24T10:32:12.584Z,77.48
2023-03-24T10:33:12.792Z,77.04
2023-03-24T10:34:12.578Z,77.33
2023-03-24T10:35:12.454Z,76.46
2023-03-24T10:36:12.632Z,76.07
2023-03-24T10:37:12.355Z,76.27
2023-03-24T10:38:12.370Z,76.50
2023-03-24T10:39:19.594Z,76.88
2023-03-24T10:40:12.235Z,77.56
2023-03-24T10:41:12.445Z,77.08
2023-03-24T10:42:12.157Z,76.02
2023-03-24T10:43:12.243Z,76.37
2023-03-24T10:44:12.068Z,75.79
2023-03-24T10:45:12.466Z,76.07
2023-03-24T10:46:12.020Z,75.45
2023-03-24T10:47:12.061Z,75.82
2023-03-24T10:48:11.923Z,75.73
2023-03-24T10:49:12.084Z,76.02
2023-03-24T10:50:12.032Z,76.31
2023-03-24T10:51:11.770Z,75.54
2023-03-24T10:52:11.922Z,74.10
2023-03-24T10:53:12.938Z,74.19
2023-03-24T10:54:11.922Z,74.10
2023-03-24T10:55:11.644Z,74.96
2023-03-24T10:56:11.612Z,74.01
2023-03-24T10:57:11.771Z,73.14
2023-03-24T10:58:11.804Z,73.81
2023-03-24T10:59:11.535Z,74.10
2023-03-24T11:00:11.392Z,73.33
2023-03-24T11:01:12.620Z,73.62
2023-03-24T11:02:11.387Z,74.19
2023-03-24T11:03:11.401Z,74.39
2023-03-24T11:04:11.234Z,74.77
2023-03-24T11:05:11.436Z,75.06
2023-03-24T11:06:11.144Z,73.52
2023-03-24T11:07:11.093Z,73.62
2023-03-24T11:08:11.051Z,72.89
2023-03-24T11:09:11.043Z,73.08
2023-03-24T11:10:11.130Z,73.08
2023-03-24T11:11:11.073Z,73.08
2023-03-24T11:12:10.932Z,72.69
2023-03-24T11:13:10.981Z,72.50
2023-03-24T11:14:10.800Z,72.22
2023-03-24T11:15:21.988Z,72.31
2023-03-24T11:16:19.323Z,71.73
2023-03-24T11:17:19.321Z,71.73
2023-03-24T11:18:18.857Z,71.87
2023-03-24T11:19:11.738Z,72.25
2023-03-24T11:20:11.790Z,72.41
2023-03-24T11:21:11.597Z,71.87
2023-03-24T11:22:18.392Z,71.06
2023-03-24T11:23:18.444Z,70.68
2023-03-24T11:24:10.455Z,70.49
2023-03-24T11:25:10.689Z,70.49
2023-03-24T11:26:17.983Z,70.87
2023-03-24T11:27:18.549Z,70.58
2023-03-24T11:28:19.070Z,70.78
2023-03-24T11:29:10.274Z,70.68
2023-03-24T11:30:10.183Z,71.35
2023-03-24T11:31:10.325Z,71.64
2023-03-24T11:32:10.042Z,72.47
2023-03-24T11:33:10.146Z,72.37
2023-03-24T11:34:10.153Z,72.18
2023-03-24T11:35:10.160Z,72.08
2023-03-24T11:36:10.137Z,72.14
2023-03-24T11:37:09.839Z,72.24
2023-03-24T11:38:09.922Z,73.10
2023-03-24T11:39:09.748Z,76.17
2023-03-24T11:40:30.931Z,77.48
2023-03-24T11:41:09.690Z,76.39
2023-03-24T11:42:10.700Z,77.21
2023-03-24T11:43:09.609Z,78.42
2023-03-24T11:44:09.708Z,79.37
2023-03-24T11:45:09.511Z,81.20
2023-03-24T11:46:09.692Z,82.87
2023-03-24T11:47:09.536Z,83.83
2023-03-24T11:48:09.392Z,84.17
2023-03-24T11:49:09.547Z,85.99
2023-03-24T11:50:09.285Z,87.52
2023-03-24T11:51:09.356Z,87.90
2023-03-24T11:52:09.221Z,90.16
2023-03-24T11:53:09.148Z,90.82
2023-03-24T11:54:09.315Z,90.06
2023-03-24T11:55:09.066Z,91.78
2023-03-24T11:56:09.129Z,92.74
2023-03-24T11:57:09.043Z,92.35
2023-03-24T11:58:09.136Z,91.88
2023-03-24T11:59:08.888Z,92.25
2023-03-24T12:00:10.041Z,91.93
2023-03-24T12:01:08.820Z,93.65
2023-03-24T12:02:09.033Z,94.60
2023-03-24T12:03:08.799Z,95.36
2023-03-24T12:04:08.687Z,96.70
2023-03-24T12:05:08.628Z,96.27
2023-03-24T12:06:08.891Z,98.85
2023-03-24T12:07:08.535Z,99.33
2023-03-24T12:08:08.668Z,99.33
2023-03-24T12:09:08.447Z,96.84
2023-03-24T12:10:08.488Z,97.03
2023-03-24T12:11:08.375Z,97.71
2023-03-24T12:12:08.785Z,99.52
2023-03-24T12:13:09.186Z,99.99
2023-03-24T12:14:08.423Z,99.99
2023-03-24T12:15:20.722Z,99.99
2023-03-24T12:16:08.190Z,99.99
2023-03-24T12:17:08.092Z,99.99
2023-03-24T12:18:08.282Z,99.99
2023-03-24T12:19:08.004Z,99.99
2023-03-24T12:20:09.158Z,99.99
2023-03-24T12:21:07.987Z,99.99
2023-03-24T12:22:08.005Z,99.99
2023-03-24T12:23:07.957Z,99.99
2023-03-24T12:24:07.903Z,99.99
2023-03-24T12:25:08.017Z,99.99
2023-03-24T12:26:07.687Z,99.99
2023-03-24T12:27:07.778Z,99.99
2023-03-24T12:28:07.601Z,99.99
2023-03-24T12:29:07.809Z,99.99
2023-03-24T12:30:07.654Z,99.99
2023-03-24T12:31:07.789Z,99.99
2023-03-24T12:32:07.418Z,99.99
2023-03-24T12:33:07.415Z,99.99
2023-03-24T12:34:07.336Z,99.99
2023-03-24T12:35:08.062Z,99.99
2023-03-24T12:36:07.280Z,99.99
2023-03-24T12:37:07.277Z,99.99
2023-03-24T12:38:07.150Z,99.99
2023-03-24T12:39:07.114Z,99.99
2023-03-24T12:40:07.067Z,99.99
2023-03-24T12:41:07.093Z,99.99
2023-03-24T12:42:07.017Z,99.99
2023-03-24T12:43:07.128Z,99.99
2023-03-24T12:44:06.880Z,99.99
2023-03-24T12:45:06.853Z,99.99
2023-03-24T12:46:07.239Z,99.99
2023-03-24T12:47:07.002Z,99.99
2023-03-24T12:48:06.744Z,99.99
2023-03-24T12:49:06.741Z,99.99
2023-03-24T12:50:06.614Z,99.99
2023-03-24T12:51:06.573Z,99.99
2023-03-24T12:52:06.734Z,99.99
2023-03-24T12:53:08.167Z,99.99
2023-03-24T12:54:08.588Z,99.99
2023-03-24T12:55:06.419Z,99.99
2023-03-24T12:56:06.554Z,99.99
2023-03-24T12:57:06.456Z,99.99
2023-03-24T12:58:07.696Z,99.99
2023-03-24T12:59:06.216Z,99.99